sensor_id;sensor_type;location;lat;lon;timestamp;pressure;altitude;pressure_sealevel;temperature;humidity
2675;BME280;1347;42.122;24.746;2022-10-16T00:00:37;100258.84;;;12.18;80.14
2675;BME280;1347;42.122;24.746;2022-10-16T00:03:04;100265.28;;;12.25;80.60
2675;BME280;1347;42.122;24.746;2022-10-16T00:05:31;100257.69;;;12.19;80.50
2675;BME280;1347;42.122;24.746;2022-10-16T00:07:59;100268.25;;;12.16;80.45
2675;BME280;1347;42.122;24.746;2022-10-16T00:10:28;100266.28;;;12.17;80.30
2675;BME280;1347;42.122;24.746;2022-10-16T00:12:55;100267.81;;;12.14;79.94
2675;BME280;1347;42.122;24.746;2022-10-16T00:15:22;100268.47;;;12.08;80.29
2675;BME280;1347;42.122;24.746;2022-10-16T00:17:49;100273.66;;;11.94;81.03
2675;BME280;1347;42.122;24.746;2022-10-16T00:20:16;100268.44;;;11.89;80.71
2675;BME280;1347;42.122;24.746;2022-10-16T00:22:43;100269.31;;;11.93;80.64
2675;BME280;1347;42.122;24.746;2022-10-16T00:25:11;100269.09;;;12.01;80.80
2675;BME280;1347;42.122;24.746;2022-10-16T00:27:38;100271.91;;;12.05;81.42
2675;BME280;1347;42.122;24.746;2022-10-16T00:30:06;100268.16;;;12.13;80.78
2675;BME280;1347;42.122;24.746;2022-10-16T00:32:34;100271.69;;;11.94;81.66
2675;BME280;1347;42.122;24.746;2022-10-16T00:35:01;100269.25;;;11.89;81.91
2675;BME280;1347;42.122;24.746;2022-10-16T00:37:29;100273.78;;;11.66;83.13
2675;BME280;1347;42.122;24.746;2022-10-16T00:39:56;100275.75;;;11.65;82.67
2675;BME280;1347;42.122;24.746;2022-10-16T00:42:24;100276.91;;;11.64;82.97
2675;BME280;1347;42.122;24.746;2022-10-16T00:44:52;100285.78;;;11.58;83.27
2675;BME280;1347;42.122;24.746;2022-10-16T00:47:24;100280.53;;;11.53;84.08
2675;BME280;1347;42.122;24.746;2022-10-16T00:49:58;100286.84;;;11.53;83.65
2675;BME280;1347;42.122;24.746;2022-10-16T00:52:26;100283.22;;;11.49;84.37
2675;BME280;1347;42.122;24.746;2022-10-16T00:54:54;100285.88;;;11.30;85.32
2675;BME280;1347;42.122;24.746;2022-10-16T00:57:24;100281.03;;;11.39;84.82
2675;BME280;1347;42.122;24.746;2022-10-16T00:59:52;100288.53;;;11.42;85.36
2675;BME280;1347;42.122;24.746;2022-10-16T01:02:19;100292.16;;;11.30;85.44
2675;BME280;1347;42.122;24.746;2022-10-16T01:04:48;100299.53;;;11.26;85.89
2675;BME280;1347;42.122;24.746;2022-10-16T01:07:29;100308.91;;;11.25;85.99
2675;BME280;1347;42.122;24.746;2022-10-16T01:10:09;100316.97;;;11.18;86.08
2675;BME280;1347;42.122;24.746;2022-10-16T01:12:44;100317.22;;;11.13;87.02
2675;BME280;1347;42.122;24.746;2022-10-16T01:15:17;100323.94;;;11.00;86.18
2675;BME280;1347;42.122;24.746;2022-10-16T01:17:48;100316.97;;;11.02;86.20
2675;BME280;1347;42.122;24.746;2022-10-16T01:20:22;100321.00;;;10.93;86.09
2675;BME280;1347;42.122;24.746;2022-10-16T01:23:04;100316.16;;;10.86;86.16
2675;BME280;1347;42.122;24.746;2022-10-16T01:25:42;100324.59;;;10.65;86.44
2675;BME280;1347;42.122;24.746;2022-10-16T01:28:18;100317.13;;;10.50;86.86
2675;BME280;1347;42.122;24.746;2022-10-16T01:30:48;100320.88;;;10.58;86.67
2675;BME280;1347;42.122;24.746;2022-10-16T01:33:20;100320.38;;;10.28;87.87
2675;BME280;1347;42.122;24.746;2022-10-16T01:35:52;100330.81;;;10.22;88.64
2675;BME280;1347;42.122;24.746;2022-10-16T01:38:22;100335.47;;;10.34;88.11
2675;BME280;1347;42.122;24.746;2022-10-16T01:40:54;100331.81;;;10.30;88.68
2675;BME280;1347;42.122;24.746;2022-10-16T01:43:28;100330.81;;;10.10;89.95
2675;BME280;1347;42.122;24.746;2022-10-16T01:45:59;100330.59;;;10.03;90.73
2675;BME280;1347;42.122;24.746;2022-10-16T01:48:27;100346.91;;;10.00;90.95
2675;BME280;1347;42.122;24.746;2022-10-16T01:51:06;100352.06;;;10.01;90.61
2675;BME280;1347;42.122;24.746;2022-10-16T01:53:34;100347.63;;;9.96;90.65
2675;BME280;1347;42.122;24.746;2022-10-16T01:56:02;100352.97;;;10.05;90.72
2675;BME280;1347;42.122;24.746;2022-10-16T01:58:37;100353.53;;;9.98;90.67
2675;BME280;1347;42.122;24.746;2022-10-16T02:01:07;100350.47;;;10.00;91.12
2675;BME280;1347;42.122;24.746;2022-10-16T02:03:37;100350.25;;;9.93;91.28
2675;BME280;1347;42.122;24.746;2022-10-16T02:06:07;100350.47;;;10.00;91.67
2675;BME280;1347;42.122;24.746;2022-10-16T02:08:35;100343.75;;;9.85;91.53
2675;BME280;1347;42.122;24.746;2022-10-16T02:11:02;100346.84;;;9.72;91.52
2675;BME280;1347;42.122;24.746;2022-10-16T02:13:34;100350.97;;;9.66;92.40
2675;BME280;1347;42.122;24.746;2022-10-16T02:16:04;100343.91;;;9.65;91.65
2675;BME280;1347;42.122;24.746;2022-10-16T02:18:31;100348.78;;;9.59;92.45
2675;BME280;1347;42.122;24.746;2022-10-16T02:21:00;100348.09;;;9.62;92.94
2675;BME280;1347;42.122;24.746;2022-10-16T02:23:35;100359.63;;;9.55;93.01
2675;BME280;1347;42.122;24.746;2022-10-16T02:26:07;100354.00;;;9.28;94.64
2675;BME280;1347;42.122;24.746;2022-10-16T02:28:40;100350.50;;;9.51;93.74
2675;BME280;1347;42.122;24.746;2022-10-16T02:31:10;100357.56;;;9.40;92.91
2675;BME280;1347;42.122;24.746;2022-10-16T02:33:40;100349.88;;;9.09;94.04
2675;BME280;1347;42.122;24.746;2022-10-16T02:36:09;100360.72;;;9.18;94.58
2675;BME280;1347;42.122;24.746;2022-10-16T02:38:37;100356.41;;;9.29;94.72
2675;BME280;1347;42.122;24.746;2022-10-16T02:41:04;100365.75;;;9.16;94.44
2675;BME280;1347;42.122;24.746;2022-10-16T02:43:31;100368.06;;;9.26;93.89
2675;BME280;1347;42.122;24.746;2022-10-16T02:46:00;100368.34;;;9.12;94.64
2675;BME280;1347;42.122;24.746;2022-10-16T02:48:27;100369.84;;;9.22;94.64
2675;BME280;1347;42.122;24.746;2022-10-16T02:50:54;100371.69;;;9.30;93.74
2675;BME280;1347;42.122;24.746;2022-10-16T02:53:22;100373.38;;;9.22;95.00
2675;BME280;1347;42.122;24.746;2022-10-16T02:55:49;100372.91;;;9.08;95.48
2675;BME280;1347;42.122;24.746;2022-10-16T02:58:16;100377.38;;;9.13;95.49
2675;BME280;1347;42.122;24.746;2022-10-16T03:00:43;100381.47;;;9.19;95.28
2675;BME280;1347;42.122;24.746;2022-10-16T03:03:11;100382.16;;;9.16;95.21
2675;BME280;1347;42.122;24.746;2022-10-16T03:05:38;100384.91;;;9.16;95.42
2675;BME280;1347;42.122;24.746;2022-10-16T03:08:05;100386.41;;;8.93;97.05
2675;BME280;1347;42.122;24.746;2022-10-16T03:10:32;100384.97;;;9.07;96.96
2675;BME280;1347;42.122;24.746;2022-10-16T03:12:59;100385.38;;;9.30;96.22
2675;BME280;1347;42.122;24.746;2022-10-16T03:15:25;100396.09;;;9.35;95.17
2675;BME280;1347;42.122;24.746;2022-10-16T03:17:53;100396.19;;;9.27;95.93
2675;BME280;1347;42.122;24.746;2022-10-16T03:20:21;100397.19;;;9.10;97.26
2675;BME280;1347;42.122;24.746;2022-10-16T03:22:48;100397.41;;;9.05;97.98
2675;BME280;1347;42.122;24.746;2022-10-16T03:25:15;100403.91;;;9.12;97.83
2675;BME280;1347;42.122;24.746;2022-10-16T03:27:42;100399.44;;;9.08;98.10
2675;BME280;1347;42.122;24.746;2022-10-16T03:30:10;100398.81;;;9.23;97.16
2675;BME280;1347;42.122;24.746;2022-10-16T03:32:37;100399.78;;;9.06;97.35
2675;BME280;1347;42.122;24.746;2022-10-16T03:35:04;100401.75;;;9.18;97.35
2675;BME280;1347;42.122;24.746;2022-10-16T03:37:33;100404.94;;;9.20;97.08
2675;BME280;1347;42.122;24.746;2022-10-16T03:39:59;100406.66;;;9.12;97.40
2675;BME280;1347;42.122;24.746;2022-10-16T03:42:26;100403.34;;;9.19;97.39
2675;BME280;1347;42.122;24.746;2022-10-16T03:44:53;100405.56;;;9.26;97.43
2675;BME280;1347;42.122;24.746;2022-10-16T03:47:20;100407.81;;;9.23;97.72
2675;BME280;1347;42.122;24.746;2022-10-16T03:49:48;100414.63;;;9.17;98.32
2675;BME280;1347;42.122;24.746;2022-10-16T03:52:15;100416.50;;;9.26;97.66
2675;BME280;1347;42.122;24.746;2022-10-16T03:54:44;100420.81;;;9.27;97.00
2675;BME280;1347;42.122;24.746;2022-10-16T03:57:11;100420.94;;;9.30;96.34
2675;BME280;1347;42.122;24.746;2022-10-16T03:59:37;100424.56;;;9.22;97.01
2675;BME280;1347;42.122;24.746;2022-10-16T04:02:04;100424.09;;;9.20;97.72
2675;BME280;1347;42.122;24.746;2022-10-16T04:04:31;100433.72;;;9.26;96.99
2675;BME280;1347;42.122;24.746;2022-10-16T04:06:58;100428.31;;;9.17;96.63
2675;BME280;1347;42.122;24.746;2022-10-16T04:09:25;100417.59;;;9.12;96.34
2675;BME280;1347;42.122;24.746;2022-10-16T04:11:54;100425.84;;;8.92;96.70
2675;BME280;1347;42.122;24.746;2022-10-16T04:14:21;100419.97;;;8.81;97.52
2675;BME280;1347;42.122;24.746;2022-10-16T04:16:48;100417.91;;;8.78;98.23
2675;BME280;1347;42.122;24.746;2022-10-16T04:19:14;100419.06;;;8.56;98.87
2675;BME280;1347;42.122;24.746;2022-10-16T04:21:41;100421.16;;;8.30;100.00
2675;BME280;1347;42.122;24.746;2022-10-16T04:24:08;100419.34;;;8.42;100.00
2675;BME280;1347;42.122;24.746;2022-10-16T04:26:36;100415.41;;;8.52;100.00
2675;BME280;1347;42.122;24.746;2022-10-16T04:29:04;100416.22;;;8.53;100.00
2675;BME280;1347;42.122;24.746;2022-10-16T04:31:32;100418.41;;;8.38;100.00
2675;BME280;1347;42.122;24.746;2022-10-16T04:33:59;100425.94;;;8.62;100.00
2675;BME280;1347;42.122;24.746;2022-10-16T04:36:26;100429.06;;;8.52;100.00
2675;BME280;1347;42.122;24.746;2022-10-16T04:38:52;100429.25;;;8.47;100.00
2675;BME280;1347;42.122;24.746;2022-10-16T04:41:20;100423.47;;;8.48;100.00
2675;BME280;1347;42.122;24.746;2022-10-16T04:43:47;100423.06;;;8.38;100.00
2675;BME280;1347;42.122;24.746;2022-10-16T04:46:15;100424.34;;;8.40;100.00
2675;BME280;1347;42.122;24.746;2022-10-16T04:48:42;100425.59;;;8.43;100.00
2675;BME280;1347;42.122;24.746;2022-10-16T04:51:09;100432.31;;;8.45;100.00
2675;BME280;1347;42.122;24.746;2022-10-16T04:53:36;100433.59;;;8.48;100.00
2675;BME280;1347;42.122;24.746;2022-10-16T04:56:03;100439.66;;;8.54;100.00
2675;BME280;1347;42.122;24.746;2022-10-16T04:58:30;100440.41;;;8.42;100.00
2675;BME280;1347;42.122;24.746;2022-10-16T05:00:56;100442.44;;;8.45;100.00
2675;BME280;1347;42.122;24.746;2022-10-16T05:03:25;100451.13;;;8.18;100.00
2675;BME280;1347;42.122;24.746;2022-10-16T05:05:52;100449.63;;;7.99;100.00
2675;BME280;1347;42.122;24.746;2022-10-16T05:08:18;100450.63;;;8.24;100.00
2675;BME280;1347;42.122;24.746;2022-10-16T05:10:46;100451.97;;;8.39;100.00
2675;BME280;1347;42.122;24.746;2022-10-16T05:13:12;100451.84;;;8.35;100.00
2675;BME280;1347;42.122;24.746;2022-10-16T05:15:39;100454.78;;;8.22;100.00
2675;BME280;1347;42.122;24.746;2022-10-16T05:18:06;100461.25;;;8.17;100.00
2675;BME280;1347;42.122;24.746;2022-10-16T05:20:35;100463.66;;;8.19;100.00
2675;BME280;1347;42.122;24.746;2022-10-16T05:23:01;100474.84;;;8.26;100.00
2675;BME280;1347;42.122;24.746;2022-10-16T05:25:29;100464.97;;;8.42;100.00
2675;BME280;1347;42.122;24.746;2022-10-16T05:27:55;100469.03;;;8.57;100.00
2675;BME280;1347;42.122;24.746;2022-10-16T05:30:22;100472.91;;;8.56;100.00
2675;BME280;1347;42.122;24.746;2022-10-16T05:32:50;100475.78;;;8.59;100.00
2675;BME280;1347;42.122;24.746;2022-10-16T05:35:18;100480.84;;;8.69;100.00
2675;BME280;1347;42.122;24.746;2022-10-16T05:37:47;100486.31;;;8.90;100.00
2675;BME280;1347;42.122;24.746;2022-10-16T05:40:14;100492.72;;;9.15;100.00
2675;BME280;1347;42.122;24.746;2022-10-16T05:42:42;100505.47;;;9.44;100.00
2675;BME280;1347;42.122;24.746;2022-10-16T05:45:10;100499.38;;;9.71;99.45
2675;BME280;1347;42.122;24.746;2022-10-16T05:47:37;100511.97;;;9.96;98.03
2675;BME280;1347;42.122;24.746;2022-10-16T05:50:04;100504.88;;;10.08;95.87
2675;BME280;1347;42.122;24.746;2022-10-16T05:52:31;100518.38;;;10.49;94.84
2675;BME280;1347;42.122;24.746;2022-10-16T05:55:00;100518.94;;;10.67;93.76
2675;BME280;1347;42.122;24.746;2022-10-16T05:57:27;100525.69;;;10.57;92.04
2675;BME280;1347;42.122;24.746;2022-10-16T05:59:54;100519.84;;;10.59;91.85
2675;BME280;1347;42.122;24.746;2022-10-16T06:02:21;100527.03;;;10.76;90.85
2675;BME280;1347;42.122;24.746;2022-10-16T06:04:48;100524.28;;;10.76;90.57
2675;BME280;1347;42.122;24.746;2022-10-16T06:07:15;100522.47;;;10.67;89.87
2675;BME280;1347;42.122;24.746;2022-10-16T06:09:42;100531.56;;;10.84;89.93
2675;BME280;1347;42.122;24.746;2022-10-16T06:12:10;100529.25;;;10.98;89.27
2675;BME280;1347;42.122;24.746;2022-10-16T06:14:37;100542.38;;;11.04;89.39
2675;BME280;1347;42.122;24.746;2022-10-16T06:17:04;100533.78;;;11.18;88.75
2675;BME280;1347;42.122;24.746;2022-10-16T06:19:31;100529.38;;;11.29;88.16
2675;BME280;1347;42.122;24.746;2022-10-16T06:21:57;100535.09;;;11.52;87.22
2675;BME280;1347;42.122;24.746;2022-10-16T06:24:25;100532.72;;;11.94;85.79
2675;BME280;1347;42.122;24.746;2022-10-16T06:26:51;100538.72;;;11.84;84.85
2675;BME280;1347;42.122;24.746;2022-10-16T06:29:20;100540.69;;;12.46;85.99
2675;BME280;1347;42.122;24.746;2022-10-16T06:31:47;100540.16;;;13.11;82.41
2675;BME280;1347;42.122;24.746;2022-10-16T06:34:14;100547.94;;;13.86;80.20
2675;BME280;1347;42.122;24.746;2022-10-16T06:36:41;100561.22;;;14.71;77.44
2675;BME280;1347;42.122;24.746;2022-10-16T06:39:08;100564.00;;;16.02;73.77
2675;BME280;1347;42.122;24.746;2022-10-16T06:41:36;100560.84;;;18.10;66.06
2675;BME280;1347;42.122;24.746;2022-10-16T06:44:05;100567.44;;;19.30;58.47
2675;BME280;1347;42.122;24.746;2022-10-16T06:46:34;100572.00;;;22.38;52.81
2675;BME280;1347;42.122;24.746;2022-10-16T06:49:01;100567.09;;;24.56;46.69
2675;BME280;1347;42.122;24.746;2022-10-16T06:51:28;100571.75;;;24.30;44.69
2675;BME280;1347;42.122;24.746;2022-10-16T06:53:56;100570.72;;;27.39;40.12
2675;BME280;1347;42.122;24.746;2022-10-16T06:56:25;100584.25;;;28.06;37.32
2675;BME280;1347;42.122;24.746;2022-10-16T06:59:02;100580.28;;;29.98;35.45
2675;BME280;1347;42.122;24.746;2022-10-16T07:01:29;100586.22;;;31.29;33.22
2675;BME280;1347;42.122;24.746;2022-10-16T07:03:58;100591.19;;;30.95;31.79
2675;BME280;1347;42.122;24.746;2022-10-16T07:06:25;100591.94;;;32.58;31.48
2675;BME280;1347;42.122;24.746;2022-10-16T07:08:53;100593.72;;;33.36;29.58
2675;BME280;1347;42.122;24.746;2022-10-16T07:11:22;100587.75;;;34.65;29.33
2675;BME280;1347;42.122;24.746;2022-10-16T07:13:50;100599.09;;;34.17;28.75
2675;BME280;1347;42.122;24.746;2022-10-16T07:16:19;100605.47;;;33.03;29.88
2675;BME280;1347;42.122;24.746;2022-10-16T07:18:47;100600.19;;;34.74;28.52
2675;BME280;1347;42.122;24.746;2022-10-16T07:21:20;100597.38;;;35.66;27.58
2675;BME280;1347;42.122;24.746;2022-10-16T07:23:50;100597.50;;;34.53;28.01
2675;BME280;1347;42.122;24.746;2022-10-16T07:26:20;100592.38;;;34.63;27.94
2675;BME280;1347;42.122;24.746;2022-10-16T07:28:49;100591.59;;;34.57;28.14
2675;BME280;1347;42.122;24.746;2022-10-16T07:31:25;100589.09;;;35.52;27.48
2675;BME280;1347;42.122;24.746;2022-10-16T07:33:54;100586.78;;;35.72;27.29
2675;BME280;1347;42.122;24.746;2022-10-16T07:36:29;100586.94;;;34.17;27.96
2675;BME280;1347;42.122;24.746;2022-10-16T07:38:56;100582.13;;;33.19;28.62
2675;BME280;1347;42.122;24.746;2022-10-16T07:41:23;100591.94;;;32.58;29.56
2675;BME280;1347;42.122;24.746;2022-10-16T07:43:51;100584.66;;;31.42;30.53
2675;BME280;1347;42.122;24.746;2022-10-16T07:46:20;100575.84;;;30.07;31.83
2675;BME280;1347;42.122;24.746;2022-10-16T07:48:48;100581.63;;;29.52;33.10
2675;BME280;1347;42.122;24.746;2022-10-16T07:51:16;100578.06;;;29.93;31.95
2675;BME280;1347;42.122;24.746;2022-10-16T07:53:45;100579.59;;;30.13;32.06
2675;BME280;1347;42.122;24.746;2022-10-16T07:56:12;100585.09;;;31.65;30.97
2675;BME280;1347;42.122;24.746;2022-10-16T07:58:39;100586.22;;;33.39;28.98
2675;BME280;1347;42.122;24.746;2022-10-16T08:01:09;100592.66;;;34.65;27.63
2675;BME280;1347;42.122;24.746;2022-10-16T08:03:36;100585.97;;;36.05;26.77
2675;BME280;1347;42.122;24.746;2022-10-16T08:06:04;100590.09;;;36.38;26.60
2675;BME280;1347;42.122;24.746;2022-10-16T08:08:31;100599.81;;;37.80;24.91
2675;BME280;1347;42.122;24.746;2022-10-16T08:11:00;100583.16;;;35.89;25.76
2675;BME280;1347;42.122;24.746;2022-10-16T08:13:29;100591.44;;;36.09;26.43
2675;BME280;1347;42.122;24.746;2022-10-16T08:15:56;100587.47;;;36.45;26.59
2675;BME280;1347;42.122;24.746;2022-10-16T08:18:23;100581.03;;;37.49;25.38
2675;BME280;1347;42.122;24.746;2022-10-16T08:20:55;100589.03;;;38.89;23.96
2675;BME280;1347;42.122;24.746;2022-10-16T08:23:22;100587.59;;;40.03;23.53
2675;BME280;1347;42.122;24.746;2022-10-16T08:25:51;100582.53;;;41.01;22.44
2675;BME280;1347;42.122;24.746;2022-10-16T08:28:20;100590.38;;;41.14;22.55
2675;BME280;1347;42.122;24.746;2022-10-16T08:30:47;100584.56;;;40.54;23.19
2675;BME280;1347;42.122;24.746;2022-10-16T08:33:14;100586.97;;;41.36;22.37
2675;BME280;1347;42.122;24.746;2022-10-16T08:35:41;100579.59;;;40.28;23.19
2675;BME280;1347;42.122;24.746;2022-10-16T08:38:08;100578.72;;;41.53;22.13
2675;BME280;1347;42.122;24.746;2022-10-16T08:40:36;100576.50;;;41.80;21.72
2675;BME280;1347;42.122;24.746;2022-10-16T08:43:31;100572.69;;;39.59;22.95
2675;BME280;1347;42.122;24.746;2022-10-16T08:46:26;100568.66;;;37.71;24.75
2675;BME280;1347;42.122;24.746;2022-10-16T08:49:02;100563.44;;;35.52;26.65
2675;BME280;1347;42.122;24.746;2022-10-16T08:51:32;100574.50;;;35.22;26.38
2675;BME280;1347;42.122;24.746;2022-10-16T08:54:02;100570.81;;;34.51;26.61
2675;BME280;1347;42.122;24.746;2022-10-16T08:56:30;100565.66;;;34.49;26.84
2675;BME280;1347;42.122;24.746;2022-10-16T08:59:00;100569.75;;;35.02;26.05
2675;BME280;1347;42.122;24.746;2022-10-16T09:01:35;100560.88;;;29.64;30.13
2675;BME280;1347;42.122;24.746;2022-10-16T09:04:29;100564.66;;;33.78;27.55
2675;BME280;1347;42.122;24.746;2022-10-16T09:07:14;100563.41;;;35.40;26.64
2675;BME280;1347;42.122;24.746;2022-10-16T09:09:56;100568.25;;;34.47;26.81
2675;BME280;1347;42.122;24.746;2022-10-16T09:12:30;100567.06;;;33.91;27.17
2675;BME280;1347;42.122;24.746;2022-10-16T09:15:04;100566.75;;;33.06;27.59
2675;BME280;1347;42.122;24.746;2022-10-16T09:17:41;100554.53;;;31.89;28.64
2675;BME280;1347;42.122;24.746;2022-10-16T09:20:20;100559.63;;;30.88;29.89
2675;BME280;1347;42.122;24.746;2022-10-16T09:22:54;100561.78;;;29.79;31.15
2675;BME280;1347;42.122;24.746;2022-10-16T09:25:23;100563.38;;;28.34;32.71
2675;BME280;1347;42.122;24.746;2022-10-16T09:27:53;100557.34;;;27.74;32.80
2675;BME280;1347;42.122;24.746;2022-10-16T09:30:22;100554.09;;;26.75;33.88
2675;BME280;1347;42.122;24.746;2022-10-16T09:32:53;100551.19;;;25.40;36.40
2675;BME280;1347;42.122;24.746;2022-10-16T09:35:22;100544.25;;;24.41;37.87
2675;BME280;1347;42.122;24.746;2022-10-16T09:37:51;100550.81;;;23.27;39.01
2675;BME280;1347;42.122;24.746;2022-10-16T09:40:26;100543.03;;;22.01;41.55
2675;BME280;1347;42.122;24.746;2022-10-16T09:43:00;100540.06;;;21.58;41.98
2675;BME280;1347;42.122;24.746;2022-10-16T09:45:29;100530.69;;;21.08;42.34
2675;BME280;1347;42.122;24.746;2022-10-16T09:47:56;100535.31;;;21.25;42.80
2675;BME280;1347;42.122;24.746;2022-10-16T09:50:26;100530.88;;;21.58;43.36
2675;BME280;1347;42.122;24.746;2022-10-16T09:53:04;100535.09;;;21.43;43.09
2675;BME280;1347;42.122;24.746;2022-10-16T09:55:33;100524.34;;;20.73;43.83
2675;BME280;1347;42.122;24.746;2022-10-16T09:58:00;100519.16;;;20.75;43.75
2675;BME280;1347;42.122;24.746;2022-10-16T10:00:28;100516.47;;;20.99;43.56
2675;BME280;1347;42.122;24.746;2022-10-16T10:02:58;100514.59;;;20.88;43.57
2675;BME280;1347;42.122;24.746;2022-10-16T10:05:27;100511.00;;;20.54;44.97
2675;BME280;1347;42.122;24.746;2022-10-16T10:07:56;100512.00;;;20.71;43.39
2675;BME280;1347;42.122;24.746;2022-10-16T10:10:25;100510.22;;;20.87;43.35
2675;BME280;1347;42.122;24.746;2022-10-16T10:12:53;100507.91;;;20.82;42.82
2675;BME280;1347;42.122;24.746;2022-10-16T10:15:21;100501.72;;;21.02;42.38
2675;BME280;1347;42.122;24.746;2022-10-16T10:17:52;100498.91;;;21.05;42.58
2675;BME280;1347;42.122;24.746;2022-10-16T10:20:26;100501.88;;;20.87;41.59
2675;BME280;1347;42.122;24.746;2022-10-16T10:22:54;100493.53;;;20.50;41.69
2675;BME280;1347;42.122;24.746;2022-10-16T10:25:33;100500.38;;;20.79;41.27
2675;BME280;1347;42.122;24.746;2022-10-16T10:28:16;100494.97;;;20.99;41.99
2675;BME280;1347;42.122;24.746;2022-10-16T10:30:50;100495.75;;;21.00;42.22
2675;BME280;1347;42.122;24.746;2022-10-16T10:33:26;100494.44;;;21.11;42.40
2675;BME280;1347;42.122;24.746;2022-10-16T10:36:02;100495.53;;;21.21;41.88
2675;BME280;1347;42.122;24.746;2022-10-16T10:38:39;100483.38;;;21.04;42.49
2675;BME280;1347;42.122;24.746;2022-10-16T10:44:34;100481.44;;;20.64;41.99
2675;BME280;1347;42.122;24.746;2022-10-16T10:47:15;100478.66;;;20.64;42.85
2675;BME280;1347;42.122;24.746;2022-10-16T10:49:56;100477.75;;;20.74;42.86
2675;BME280;1347;42.122;24.746;2022-10-16T10:52:37;100479.47;;;20.16;42.89
2675;BME280;1347;42.122;24.746;2022-10-16T10:55:17;100475.41;;;20.28;43.82
2675;BME280;1347;42.122;24.746;2022-10-16T10:57:57;100471.38;;;20.36;43.24
2675;BME280;1347;42.122;24.746;2022-10-16T11:00:28;100475.72;;;19.89;44.07
2675;BME280;1347;42.122;24.746;2022-10-16T11:03:03;100471.75;;;19.90;44.37
2675;BME280;1347;42.122;24.746;2022-10-16T11:05:42;100469.31;;;19.95;43.79
2675;BME280;1347;42.122;24.746;2022-10-16T11:08:14;100463.22;;;20.11;43.66
2675;BME280;1347;42.122;24.746;2022-10-16T11:10:48;100457.66;;;20.14;43.99
2675;BME280;1347;42.122;24.746;2022-10-16T11:13:24;100460.78;;;20.16;44.09
2675;BME280;1347;42.122;24.746;2022-10-16T11:15:57;100461.72;;;20.03;43.88
2675;BME280;1347;42.122;24.746;2022-10-16T11:18:30;100459.69;;;20.07;43.54
2675;BME280;1347;42.122;24.746;2022-10-16T11:21:05;100461.66;;;20.06;42.89
2675;BME280;1347;42.122;24.746;2022-10-16T11:23:40;100453.69;;;20.08;43.56
2675;BME280;1347;42.122;24.746;2022-10-16T11:26:18;100448.91;;;20.12;43.14
2675;BME280;1347;42.122;24.746;2022-10-16T11:28:49;100449.50;;;19.86;42.86
2675;BME280;1347;42.122;24.746;2022-10-16T11:31:22;100445.50;;;19.91;43.65
2675;BME280;1347;42.122;24.746;2022-10-16T11:33:55;100440.00;;;19.83;43.07
2675;BME280;1347;42.122;24.746;2022-10-16T11:36:33;100439.72;;;19.71;43.48
2675;BME280;1347;42.122;24.746;2022-10-16T11:39:11;100450.44;;;19.69;43.46
2675;BME280;1347;42.122;24.746;2022-10-16T11:41:45;100438.28;;;19.41;43.67
2675;BME280;1347;42.122;24.746;2022-10-16T11:44:21;100439.44;;;19.51;43.83
2675;BME280;1347;42.122;24.746;2022-10-16T11:47:01;100438.84;;;19.81;44.35
2675;BME280;1347;42.122;24.746;2022-10-16T11:49:34;100445.84;;;19.96;43.41
2675;BME280;1347;42.122;24.746;2022-10-16T11:52:10;100442.25;;;19.99;42.80
2675;BME280;1347;42.122;24.746;2022-10-16T11:54:43;100447.59;;;19.79;43.59
2675;BME280;1347;42.122;24.746;2022-10-16T11:57:16;100440.72;;;19.95;42.95
2675;BME280;1347;42.122;24.746;2022-10-16T11:59:47;100439.53;;;20.37;42.55
2675;BME280;1347;42.122;24.746;2022-10-16T12:02:32;100448.94;;;20.53;41.70
2675;BME280;1347;42.122;24.746;2022-10-16T12:05:14;100438.41;;;20.68;41.61
2675;BME280;1347;42.122;24.746;2022-10-16T12:07:51;100452.88;;;20.90;40.98
2675;BME280;1347;42.122;24.746;2022-10-16T12:10:23;100448.09;;;21.24;40.53
2675;BME280;1347;42.122;24.746;2022-10-16T12:12:51;100450.97;;;21.71;40.50
2675;BME280;1347;42.122;24.746;2022-10-16T12:15:33;100436.88;;;22.28;39.37
2675;BME280;1347;42.122;24.746;2022-10-16T12:18:01;100440.56;;;22.45;38.96
2675;BME280;1347;42.122;24.746;2022-10-16T12:20:32;100445.13;;;22.35;38.97
2675;BME280;1347;42.122;24.746;2022-10-16T12:23:04;100443.09;;;22.16;38.82
2675;BME280;1347;42.122;24.746;2022-10-16T12:25:33;100445.91;;;22.36;39.08
2675;BME280;1347;42.122;24.746;2022-10-16T12:28:03;100448.44;;;22.50;39.01
2675;BME280;1347;42.122;24.746;2022-10-16T12:30:33;100444.63;;;22.40;38.64
2675;BME280;1347;42.122;24.746;2022-10-16T12:33:02;100435.50;;;21.90;39.42
2675;BME280;1347;42.122;24.746;2022-10-16T12:35:32;100444.13;;;21.76;39.83
2675;BME280;1347;42.122;24.746;2022-10-16T12:38:15;100444.50;;;21.51;39.58
2675;BME280;1347;42.122;24.746;2022-10-16T12:40:44;100454.03;;;21.53;39.72
2675;BME280;1347;42.122;24.746;2022-10-16T12:43:36;100440.78;;;21.34;39.78
2675;BME280;1347;42.122;24.746;2022-10-16T12:46:19;100448.22;;;21.10;39.77
2675;BME280;1347;42.122;24.746;2022-10-16T12:48:49;100447.34;;;21.20;40.60
2675;BME280;1347;42.122;24.746;2022-10-16T12:51:25;100450.97;;;20.83;40.73
2675;BME280;1347;42.122;24.746;2022-10-16T12:54:02;100445.25;;;20.60;41.64
2675;BME280;1347;42.122;24.746;2022-10-16T12:56:38;100453.66;;;20.56;42.00
2675;BME280;1347;42.122;24.746;2022-10-16T12:59:17;100449.69;;;20.13;42.06
2675;BME280;1347;42.122;24.746;2022-10-16T13:01:59;100451.78;;;20.02;42.63
2675;BME280;1347;42.122;24.746;2022-10-16T13:04:48;100453.22;;;20.17;42.42
2675;BME280;1347;42.122;24.746;2022-10-16T13:07:40;100453.69;;;20.08;42.24
2675;BME280;1347;42.122;24.746;2022-10-16T13:10:17;100456.47;;;20.12;42.63
2675;BME280;1347;42.122;24.746;2022-10-16T13:16:05;100455.00;;;19.97;42.40
2675;BME280;1347;42.122;24.746;2022-10-16T13:18:43;100456.25;;;19.92;42.78
2675;BME280;1347;42.122;24.746;2022-10-16T13:21:29;100470.94;;;19.93;42.97
2675;BME280;1347;42.122;24.746;2022-10-16T13:24:07;100466.53;;;19.95;42.93
2675;BME280;1347;42.122;24.746;2022-10-16T13:26:44;100463.47;;;20.27;42.82